Time;durP1;ratioP1;P1;durP2;ratioP2;P2;SDS_P1;SDS_P2;PMS_P1;PMS_P2;Temp;Humidity;BMP_temperature;BMP_pressure;BME280_temperature;BME280_humidity;BME280_pressure;Samples;Min_cycle;Max_cycle;Signal;HPM_P1;HPM_P2
2022/01/31 00:01:01;;;;;;;29.38;7.78;;;;;;;;;;5052832;27;97444;-77
2022/01/31 00:03:30;;;;;;;25.88;7.68;;;;;;;;;;5055579;27;95383;-78
2022/01/31 00:05:56;;;;;;;25.10;7.13;;;;;;;;;;5054835;27;95494;-77
2022/01/31 00:08:24;;;;;;;24.27;8.05;;;;;;;;;;5054879;27;97674;-78
2022/01/31 00:10:51;;;;;;;23.88;8.18;;;;;;;;;;5061430;27;95209;-77
2022/01/31 00:13:21;;;;;;;34.92;9.80;;;;;;;;;;5073419;27;96805;-77
2022/01/31 00:15:54;;;;;;;29.15;10.68;;;;;;;;;;5076529;27;97359;-76
2022/01/31 00:18:20;;;;;;;;;;;;;;;;;;5073850;27;97018;-74
2022/01/31 00:20:46;;;;;;;25.23;7.00;;;;;;;;;;5072015;27;126868;-75
2022/01/31 00:23:13;;;;;;;33.42;7.47;;;;;;;;;;5073575;27;95364;-74
2022/01/31 00:25:39;;;;;;;20.27;6.38;;;;;;;;;;5064418;27;96250;-73
2022/01/31 00:28:06;;;;;;;23.20;6.93;;;;;;;;;;5051880;27;97498;-74
2022/01/31 00:30:32;;;;;;;26.67;6.90;;;;;;;;;;5053424;27;96001;-74
2022/01/31 00:32:58;;;;;;;33.25;7.75;;;;;;;;;;5052813;27;96826;-75
2022/01/31 00:35:26;;;;;;;22.92;6.03;;;;;;;;;;5065686;27;97440;-75
2022/01/31 00:37:53;;;;;;;26.63;6.78;;;;;;;;;;5075873;27;95339;-77
2022/01/31 00:40:19;;;;;;;21.17;6.50;;;;;;;;;;5072510;27;96493;-77
2022/01/31 00:42:47;;;;;;;28.85;9.02;;;;;;;;;;5071961;27;95774;-77
2022/01/31 00:45:19;;;;;;;28.15;7.85;;;;;;;;;;5073192;27;95881;-77
2022/01/31 00:47:50;;;;;;;39.55;7.47;;;;;;;;;;5072895;27;97341;-77
2022/01/31 00:50:18;;;;;;;26.08;7.40;;;;;;;;;;5072799;27;95553;-78
2022/01/31 00:52:45;;;;;;;35.80;8.32;;;;;;;;;;5072989;27;97109;-76
2022/01/31 00:55:12;;;;;;;26.92;8.32;;;;;;;;;;5072234;27;97331;-75
2022/01/31 00:57:40;;;;;;;31.23;9.82;;;;;;;;;;5072985;27;95324;-75
2022/01/31 01:00:06;;;;;;;30.50;9.52;;;;;;;;;;5075989;27;97215;-76
2022/01/31 01:02:33;;;;;;;25.63;9.80;;;;;;;;;;5070877;27;95353;-76
2022/01/31 01:04:59;;;;;;;27.17;10.18;;;;;;;;;;5055499;27;95974;-77
2022/01/31 01:07:26;;;;;;;35.17;10.52;;;;;;;;;;5055751;27;97987;-75
2022/01/31 01:09:52;;;;;;;35.20;10.00;;;;;;;;;;5054982;27;95267;-76
2022/01/31 01:12:19;;;;;;;31.42;11.38;;;;;;;;;;5055907;27;96956;-76
2022/01/31 01:14:46;;;;;;;36.38;12.02;;;;;;;;;;5055613;27;97381;-76
2022/01/31 01:17:12;;;;;;;30.85;11.95;;;;;;;;;;5055280;27;95350;-76
2022/01/31 01:19:39;;;;;;;42.85;13.00;;;;;;;;;;5077978;27;96829;-76
2022/01/31 01:22:05;;;;;;;38.72;13.18;;;;;;;;;;5075804;27;95337;-76
2022/01/31 01:24:31;;;;;;;35.95;12.93;;;;;;;;;;5075486;27;96836;-78
2022/01/31 01:26:58;;;;;;;45.85;13.52;;;;;;;;;;5075573;27;97249;-76
2022/01/31 01:29:24;;;;;;;37.90;14.10;;;;;;;;;;5076044;27;95383;-75
2022/01/31 01:31:51;;;;;;;38.58;12.88;;;;;;;;;;5075371;27;96836;-76
2022/01/31 01:34:20;;;;;;;44.92;14.10;;;;;;;;;;5061161;27;97485;-75
2022/01/31 01:36:50;;;;;;;39.17;14.40;;;;;;;;;;5075878;27;95364;-76
2022/01/31 01:39:16;;;;;;;43.83;14.30;;;;;;;;;;5073679;27;97322;-76
2022/01/31 01:41:44;;;;;;;44.83;14.43;;;;;;;;;;5077680;27;97790;-76
2022/01/31 01:44:10;;;;;;;40.05;13.57;;;;;;;;;;5075009;27;96162;-76
2022/01/31 01:46:37;;;;;;;52.78;14.07;;;;;;;;;;5075681;27;97578;-76
2022/01/31 01:49:03;;;;;;;39.53;14.82;;;;;;;;;;5074720;27;95337;-78
2022/01/31 01:51:30;;;;;;;43.50;13.23;;;;;;;;;;5075363;27;96911;-77
2022/01/31 01:54:00;;;;;;;36.78;12.27;;;;;;;;;;5075158;27;97493;-77
2022/01/31 01:56:27;;;;;;;40.55;12.57;;;;;;;;;;5075574;27;95311;-76
2022/01/31 01:58:54;;;;;;;29.67;10.55;;;;;;;;;;5074466;27;96713;-77
2022/01/31 02:01:20;;;;;;;30.95;11.20;;;;;;;;;;5075455;27;97476;-77
2022/01/31 02:03:47;;;;;;;31.63;10.63;;;;;;;;;;5059821;27;96352;-76
2022/01/31 02:06:13;;;;;;;30.48;11.23;;;;;;;;;;5054315;27;97572;-76
2022/01/31 02:08:43;;;;;;;36.00;11.60;;;;;;;;;;5054597;27;95752;-77
2022/01/31 02:11:10;;;;;;;26.88;10.70;;;;;;;;;;5054304;27;97160;-78
2022/01/31 02:13:37;;;;;;;21.52;9.38;;;;;;;;;;5053986;27;96212;-77
2022/01/31 02:16:04;;;;;;;25.60;10.00;;;;;;;;;;5054293;27;95391;-77
2022/01/31 02:18:31;;;;;;;20.02;8.77;;;;;;;;;;5072494;27;96557;-76
2022/01/31 02:20:58;;;;;;;28.13;9.27;;;;;;;;;;5074572;27;97676;-76
2022/01/31 02:23:25;;;;;;;17.45;8.50;;;;;;;;;;5075190;27;95469;-77
2022/01/31 02:25:56;;;;;;;29.98;9.23;;;;;;;;;;5078346;27;97157;-76
2022/01/31 02:28:25;;;;;;;27.10;9.65;;;;;;;;;;5074669;27;95353;-76
2022/01/31 02:30:51;;;;;;;25.08;10.15;;;;;;;;;;5075496;27;97015;-76
2022/01/31 02:33:19;;;;;;;27.05;10.02;;;;;;;;;;5075017;27;97404;-76
2022/01/31 02:35:46;;;;;;;22.23;9.50;;;;;;;;;;5058958;27;95435;-77
2022/01/31 02:38:12;;;;;;;33.15;9.63;;;;;;;;;;5054448;27;97346;-77
2022/01/31 02:40:39;;;;;;;27.52;9.95;;;;;;;;;;5053351;27;97455;-78
2022/01/31 02:43:05;;;;;;;27.42;10.07;;;;;;;;;;5054327;27;95352;-78
2022/01/31 02:45:32;;;;;;;32.17;9.75;;;;;;;;;;5053960;27;97216;-78
2022/01/31 02:48:00;;;;;;;28.40;10.90;;;;;;;;;;5056508;27;97090;-77
2022/01/31 02:50:27;;;;;;;32.15;9.60;;;;;;;;;;5065581;27;96699;-77
2022/01/31 02:53:10;;;;;;;24.85;8.30;;;;;;;;;;5074321;27;97299;-78
2022/01/31 02:55:37;;;;;;;27.00;7.63;;;;;;;;;;5053856;27;95109;-78
2022/01/31 02:58:04;;;;;;;30.92;7.68;;;;;;;;;;5054112;27;96831;-78
2022/01/31 03:00:30;;;;;;;31.70;7.30;;;;;;;;;;5054325;27;99067;-78
2022/01/31 03:02:57;;;;;;;23.85;5.95;;;;;;;;;;5053806;27;95349;-77
2022/01/31 03:05:23;;;;;;;21.10;5.32;;;;;;;;;;5054068;27;96609;-77
2022/01/31 03:07:50;;;;;;;33.13;4.72;;;;;;;;;;5054782;27;97305;-78
2022/01/31 03:10:16;;;;;;;26.13;4.90;;;;;;;;;;5056809;27;95163;-77
2022/01/31 03:12:43;;;;;;;29.08;4.80;;;;;;;;;;5053766;27;97675;-78
2022/01/31 03:15:09;;;;;;;25.55;4.70;;;;;;;;;;5053591;27;95438;-76
2022/01/31 03:17:36;;;;;;;17.17;3.78;;;;;;;;;;5053559;27;97151;-77
2022/01/31 03:20:02;;;;;;;30.30;5.13;;;;;;;;;;5053406;27;97339;-77
2022/01/31 03:22:30;;;;;;;25.02;4.18;;;;;;;;;;5059102;27;95416;-77
2022/01/31 03:24:56;;;;;;;13.50;3.10;;;;;;;;;;5072797;27;97260;-77
2022/01/31 03:27:23;;;;;;;25.23;3.78;;;;;;;;;;5073721;27;97595;-77
2022/01/31 03:29:49;;;;;;;25.52;4.28;;;;;;;;;;5076362;27;95685;-77
2022/01/31 03:32:16;;;;;;;22.77;3.45;;;;;;;;;;5073973;27;97422;-77
2022/01/31 03:34:42;;;;;;;22.08;3.20;;;;;;;;;;5066770;27;95442;-77
2022/01/31 03:37:09;;;;;;;23.35;3.83;;;;;;;;;;5052876;27;96803;-77
2022/01/31 03:39:35;;;;;;;19.92;3.65;;;;;;;;;;5052886;27;97438;-77
2022/01/31 03:42:01;;;;;;;24.00;3.97;;;;;;;;;;5053394;27;95151;-77
2022/01/31 03:44:29;;;;;;;20.77;3.47;;;;;;;;;;5052863;27;95809;-77
2022/01/31 03:46:57;;;;;;;21.35;3.50;;;;;;;;;;5053304;27;97681;-77
2022/01/31 03:49:23;;;;;;;17.65;3.33;;;;;;;;;;5053239;27;95399;-77
2022/01/31 03:51:50;;;;;;;21.92;3.08;;;;;;;;;;5055567;27;97238;-77
2022/01/31 03:54:16;;;;;;;21.17;3.53;;;;;;;;;;5072192;27;95524;-77
2022/01/31 03:56:43;;;;;;;18.73;3.63;;;;;;;;;;5073815;27;96753;-77
2022/01/31 03:59:09;;;;;;;23.70;3.75;;;;;;;;;;5072212;27;97377;-76
2022/01/31 04:01:35;;;;;;;24.52;4.00;;;;;;;;;;5073824;27;95420;-77
2022/01/31 04:04:02;;;;;;;24.10;3.33;;;;;;;;;;5073555;27;96848;-77
2022/01/31 04:06:28;;;;;;;21.00;3.28;;;;;;;;;;5073125;27;97671;-77
2022/01/31 04:08:55;;;;;;;22.63;3.47;;;;;;;;;;5071069;27;95432;-77
2022/01/31 04:11:21;;;;;;;22.17;3.38;;;;;;;;;;5074183;27;97371;-77
2022/01/31 04:13:48;;;;;;;21.15;3.63;;;;;;;;;;5075978;27;97336;-77
2022/01/31 04:16:14;;;;;;;14.15;2.60;;;;;;;;;;5073628;27;96911;-77
2022/01/31 04:18:40;;;;;;;28.40;3.55;;;;;;;;;;5073251;27;97529;-77
2022/01/31 04:21:08;;;;;;;21.88;3.03;;;;;;;;;;5073116;27;96634;-78
2022/01/31 04:23:34;;;;;;;23.55;3.33;;;;;;;;;;5072853;27;96890;-77
2022/01/31 04:26:10;;;;;;;23.92;3.00;;;;;;;;;;5068615;27;97253;-76
2022/01/31 04:28:43;;;;;;;23.27;3.08;;;;;;;;;;5063344;27;96607;-76
2022/01/31 04:31:26;;;;;;;22.15;3.53;;;;;;;;;;5062113;27;95717;-76
2022/01/31 04:33:53;;;;;;;25.27;4.32;;;;;;;;;;5065846;27;97882;-77
2022/01/31 04:36:19;;;;;;;23.75;3.30;;;;;;;;;;5060979;27;95365;-74
2022/01/31 04:38:46;;;;;;;30.00;3.88;;;;;;;;;;5066104;27;97693;-75
2022/01/31 04:41:13;;;;;;;18.55;3.30;;;;;;;;;;5071543;27;95098;-75
2022/01/31 04:43:39;;;;;;;20.67;3.17;;;;;;;;;;5072263;27;97017;-75
2022/01/31 04:46:07;;;;;;;26.98;4.43;;;;;;;;;;5057214;27;97646;-76
2022/01/31 04:48:34;;;;;;;22.95;3.72;;;;;;;;;;5071638;27;95435;-75
2022/01/31 04:51:00;;;;;;;21.13;3.17;;;;;;;;;;5069487;27;96871;-76
2022/01/31 04:53:27;;;;;;;16.27;3.25;;;;;;;;;;5057721;27;97472;-76
2022/01/31 04:55:53;;;;;;;29.65;4.25;;;;;;;;;;5060190;27;95464;-76
2022/01/31 04:58:22;;;;;;;21.15;3.75;;;;;;;;;;5074203;27;95756;-75
2022/01/31 05:00:51;;;;;;;20.10;3.00;;;;;;;;;;5053195;27;95392;-75
2022/01/31 05:03:20;;;;;;;19.60;3.28;;;;;;;;;;5051691;27;96758;-76
2022/01/31 05:05:46;;;;;;;27.90;3.50;;;;;;;;;;5051644;27;97674;-76
2022/01/31 05:08:13;;;;;;;22.08;3.80;;;;;;;;;;5066748;27;95457;-75
2022/01/31 05:10:44;;;;;;;23.92;4.13;;;;;;;;;;5072390;27;97018;-77
2022/01/31 05:13:12;;;;;;;23.00;3.53;;;;;;;;;;5071639;27;97726;-77
2022/01/31 05:15:38;;;;;;;22.90;4.15;;;;;;;;;;5071266;27;95681;-78
2022/01/31 05:18:05;;;;;;;18.60;3.80;;;;;;;;;;5056733;27;96831;-77
2022/01/31 05:20:31;;;;;;;15.88;2.13;;;;;;;;;;5067851;27;95487;-78
2022/01/31 05:22:58;;;;;;;19.08;2.67;;;;;;;;;;5055981;27;97079;-77
2022/01/31 05:25:24;;;;;;;15.88;2.25;;;;;;;;;;5065039;27;97096;-78
2022/01/31 05:27:51;;;;;;;12.77;2.65;;;;;;;;;;5064300;27;95218;-78
2022/01/31 05:30:17;;;;;;;8.98;2.45;;;;;;;;;;5071171;27;96776;-79
2022/01/31 05:32:44;;;;;;;11.95;2.38;;;;;;;;;;5071560;27;97841;-78
2022/01/31 05:35:10;;;;;;;18.02;2.35;;;;;;;;;;5071870;27;95432;-78
2022/01/31 05:37:37;;;;;;;17.90;3.17;;;;;;;;;;5069772;27;95796;-78
2022/01/31 05:40:04;;;;;;;18.27;2.50;;;;;;;;;;5072683;27;97301;-77
2022/01/31 05:42:31;;;;;;;18.58;3.17;;;;;;;;;;5072370;27;96831;-79
2022/01/31 05:44:57;;;;;;;24.45;3.22;;;;;;;;;;5063505;27;96448;-78
2022/01/31 05:47:23;;;;;;;14.48;2.60;;;;;;;;;;5052401;27;95356;-79
2022/01/31 05:49:50;;;;;;;21.95;3.15;;;;;;;;;;5075707;27;97086;-77
2022/01/31 05:52:16;;;;;;;25.95;4.47;;;;;;;;;;5073939;27;97731;-78
2022/01/31 05:54:43;;;;;;;17.60;3.25;;;;;;;;;;5068957;27;95329;-78
2022/01/31 05:57:10;;;;;;;16.95;3.05;;;;;;;;;;5069853;27;96821;-78
2022/01/31 05:59:38;;;;;;;25.05;4.10;;;;;;;;;;5073945;27;97418;-78
2022/01/31 06:02:04;;;;;;;26.30;4.15;;;;;;;;;;5078025;27;95388;-78
2022/01/31 06:04:31;;;;;;;32.88;4.78;;;;;;;;;;5063719;27;97798;-79
2022/01/31 06:06:57;;;;;;;28.70;3.95;;;;;;;;;;5075572;27;95426;-79
2022/01/31 06:09:26;;;;;;;29.95;4.15;;;;;;;;;;5075556;27;96927;-78
2022/01/31 06:11:53;;;;;;;30.98;4.88;;;;;;;;;;5074656;27;97325;-78
2022/01/31 06:14:19;;;;;;;26.42;4.13;;;;;;;;;;5074237;27;95338;-78
2022/01/31 06:16:47;;;;;;;27.88;4.55;;;;;;;;;;5070255;27;96802;-79
2022/01/31 06:19:13;;;;;;;25.48;3.80;;;;;;;;;;5074476;27;97810;-79
2022/01/31 06:21:41;;;;;;;28.85;4.47;;;;;;;;;;5075443;27;95233;-78
2022/01/31 06:24:09;;;;;;;21.00;3.70;;;;;;;;;;5078130;27;96432;-79
2022/01/31 06:26:36;;;;;;;30.88;3.70;;;;;;;;;;5074202;27;95653;-78
2022/01/31 06:29:03;;;;;;;36.10;3.80;;;;;;;;;;5074711;27;96781;-79
2022/01/31 06:31:30;;;;;;;23.33;4.05;;;;;;;;;;5074519;27;97319;-79
2022/01/31 06:33:57;;;;;;;32.42;3.65;;;;;;;;;;5074638;27;95345;-79
2022/01/31 06:36:24;;;;;;;24.17;3.60;;;;;;;;;;5059109;27;97044;-78
2022/01/31 06:38:51;;;;;;;24.73;3.97;;;;;;;;;;5074733;27;97541;-78
2022/01/31 06:41:23;;;;;;;25.60;4.00;;;;;;;;;;5074548;27;95201;-78
2022/01/31 06:43:50;;;;;;;30.38;3.22;;;;;;;;;;5074875;27;97268;-78
2022/01/31 06:46:16;;;;;;;21.70;3.15;;;;;;;;;;5065715;27;97478;-78
2022/01/31 06:48:43;;;;;;;27.23;2.92;;;;;;;;;;5064468;27;96853;-77
2022/01/31 06:51:09;;;;;;;35.25;3.80;;;;;;;;;;5074674;27;97640;-77
2022/01/31 06:53:35;;;;;;;26.75;3.15;;;;;;;;;;5074485;27;95469;-78
2022/01/31 06:56:02;;;;;;;25.92;3.75;;;;;;;;;;5074178;27;97237;-77
2022/01/31 06:58:28;;;;;;;25.30;3.42;;;;;;;;;;5072606;27;96947;-78
2022/01/31 07:00:56;;;;;;;31.67;3.88;;;;;;;;;;5073186;27;95820;-77
2022/01/31 07:03:22;;;;;;;27.60;3.13;;;;;;;;;;5075309;27;96684;-78
2022/01/31 07:05:49;;;;;;;13.95;3.67;;;;;;;;;;5065858;27;97334;-77
2022/01/31 07:08:16;;;;;;;25.10;3.03;;;;;;;;;;5069354;27;95662;-77
2022/01/31 16:26:58;;;;;;;29.70;3.28;;;;;;;;;;5027835;27;95598;-77
2022/01/31 16:29:26;;;;;;;33.92;4.97;;;;;;;;;;5025378;27;97114;-78
2022/01/31 16:31:52;;;;;;;35.55;4.60;;;;;;;;;;5012410;28;95673;-78
2022/01/31 16:34:19;;;;;;;27.98;3.95;;;;;;;;;;5008846;28;95888;-77
2022/01/31 16:36:45;;;;;;;54.42;10.18;;;;;;;;;;5008891;28;97665;-77
2022/01/31 16:39:11;;;;;;;55.55;20.23;;;;;;;;;;5044901;27;96053;-78
2022/01/31 16:41:38;;;;;;;36.33;5.20;;;;;;;;;;5048741;27;96833;-78
2022/01/31 16:44:04;;;;;;;35.50;5.70;;;;;;;;;;5031303;27;97032;-78
2022/01/31 16:46:39;;;;;;;35.10;5.20;;;;;;;;;;5031098;27;97066;-77
2022/01/31 16:49:09;;;;;;;42.08;5.40;;;;;;;;;;5027197;28;97345;-77
2022/01/31 16:51:36;;;;;;;24.15;3.80;;;;;;;;;;5028204;28;95295;-77
2022/01/31 16:54:02;;;;;;;30.50;5.13;;;;;;;;;;5006766;28;97033;-78
2022/01/31 16:56:29;;;;;;;30.52;4.22;;;;;;;;;;5008005;28;97637;-79
2022/01/31 16:58:55;;;;;;;26.90;4.05;;;;;;;;;;5009319;28;95317;-78
2022/01/31 17:01:27;;;;;;;27.73;4.00;;;;;;;;;;5036371;27;96758;-78
2022/01/31 17:03:54;;;;;;;28.63;4.47;;;;;;;;;;5008347;28;96955;-77
2022/01/31 17:06:20;;;;;;;16.50;3.53;;;;;;;;;;5008207;28;95396;-77
2022/01/31 17:08:47;;;;;;;28.30;4.20;;;;;;;;;;5011557;28;97144;-78
2022/01/31 17:11:13;;;;;;;28.20;4.40;;;;;;;;;;5013828;28;95751;-77
2022/01/31 17:13:41;;;;;;;33.97;4.50;;;;;;;;;;5012172;28;96814;-78
2022/01/31 17:16:07;;;;;;;33.92;5.15;;;;;;;;;;5047452;27;97291;-77
2022/01/31 17:18:34;;;;;;;29.25;4.85;;;;;;;;;;5034348;27;95201;-77
2022/01/31 17:21:00;;;;;;;33.22;4.72;;;;;;;;;;5027926;28;97240;-77
2022/01/31 17:23:27;;;;;;;28.08;4.85;;;;;;;;;;5026602;28;97619;-78
2022/01/31 17:25:53;;;;;;;31.88;4.10;;;;;;;;;;5013112;28;95358;-76
2022/01/31 17:28:20;;;;;;;42.65;5.57;;;;;;;;;;5015393;27;97111;-76
2022/01/31 17:30:46;;;;;;;37.28;6.57;;;;;;;;;;5026663;27;97422;-77
2022/01/31 17:33:12;;;;;;;29.35;5.28;;;;;;;;;;5028293;28;96693;-77
2022/01/31 17:35:39;;;;;;;39.58;5.32;;;;;;;;;;5014170;28;97397;-76
2022/01/31 17:38:05;;;;;;;39.33;6.35;;;;;;;;;;4997347;28;95300;-76
2022/01/31 17:40:31;;;;;;;38.85;4.97;;;;;;;;;;5012131;28;97130;-74
2022/01/31 17:43:00;;;;;;;38.00;4.90;;;;;;;;;;5008719;28;97577;-76
2022/01/31 17:45:28;;;;;;;62.92;13.02;;;;;;;;;;5010992;28;95552;-78
2022/01/31 17:47:56;;;;;;;21.48;3.95;;;;;;;;;;5013083;28;97075;-77
2022/01/31 17:50:22;;;;;;;34.20;7.25;;;;;;;;;;5011411;28;97518;-76
2022/01/31 17:52:49;;;;;;;39.28;7.43;;;;;;;;;;5019802;28;96934;-77
2022/01/31 17:55:16;;;;;;;34.67;5.38;;;;;;;;;;5025363;28;97442;-79
2022/01/31 17:57:42;;;;;;;30.77;5.32;;;;;;;;;;5009914;27;96682;-77
2022/01/31 18:00:09;;;;;;;42.75;5.90;;;;;;;;;;5013256;28;96696;-78
2022/01/31 18:02:35;;;;;;;40.10;5.55;;;;;;;;;;5028320;28;97677;-78
2022/01/31 18:05:02;;;;;;;54.13;6.25;;;;;;;;;;5022841;28;95711;-77
2022/01/31 18:07:28;;;;;;;43.88;6.95;;;;;;;;;;5003123;28;96497;-76
2022/01/31 18:09:56;;;;;;;48.63;6.22;;;;;;;;;;5018247;28;97235;-75
2022/01/31 18:12:22;;;;;;;42.80;6.38;;;;;;;;;;5011534;27;95705;-76
2022/01/31 18:14:49;;;;;;;34.88;5.25;;;;;;;;;;5014833;28;96907;-76
2022/01/31 18:17:16;;;;;;;41.50;5.85;;;;;;;;;;5005958;28;95350;-77
2022/01/31 18:19:46;;;;;;;41.67;7.32;;;;;;;;;;5018746;28;96110;-77
2022/01/31 18:22:14;;;;;;;39.53;5.60;;;;;;;;;;5012648;28;97409;-77
2022/01/31 18:24:44;;;;;;;42.50;5.67;;;;;;;;;;5010290;28;95394;-77
2022/01/31 18:27:11;;;;;;;39.67;7.22;;;;;;;;;;5012979;28;96794;-78
2022/01/31 18:29:37;;;;;;;34.00;6.15;;;;;;;;;;5020608;28;97575;-78
2022/01/31 18:32:08;;;;;;;47.53;6.90;;;;;;;;;;5012632;28;95744;-78
2022/01/31 18:34:34;;;;;;;53.70;6.32;;;;;;;;;;5022372;27;97183;-78
2022/01/31 18:37:01;;;;;;;44.97;5.30;;;;;;;;;;5019058;27;95491;-77
2022/01/31 18:39:27;;;;;;;37.55;5.80;;;;;;;;;;5003144;28;96937;-77
2022/01/31 18:41:54;;;;;;;39.22;5.82;;;;;;;;;;5014693;28;97499;-76
2022/01/31 18:44:21;;;;;;;43.13;6.38;;;;;;;;;;5017438;28;95449;-76
2022/01/31 18:46:47;;;;;;;34.15;5.22;;;;;;;;;;5017758;28;96851;-76
2022/01/31 18:49:15;;;;;;;44.95;5.85;;;;;;;;;;5027263;27;97568;-76
2022/01/31 18:51:42;;;;;;;35.17;4.63;;;;;;;;;;5005553;28;95313;-77
2022/01/31 18:54:10;;;;;;;35.17;5.68;;;;;;;;;;5019253;27;95909;-76
2022/01/31 18:56:56;;;;;;;37.13;5.47;;;;;;;;;;5025143;28;98548;-76
2022/01/31 18:59:24;;;;;;;36.08;6.32;;;;;;;;;;5005412;28;96777;-77
2022/01/31 19:01:50;;;;;;;36.45;6.07;;;;;;;;;;5022088;28;97711;-77
2022/01/31 19:04:19;;;;;;;44.78;6.13;;;;;;;;;;5008037;28;95395;-77
2022/01/31 19:06:45;;;;;;;33.30;6.57;;;;;;;;;;5026506;28;96645;-76
2022/01/31 19:09:15;;;;;;;35.90;5.25;;;;;;;;;;5016454;28;96105;-77
2022/01/31 19:11:50;;;;;;;38.50;6.90;;;;;;;;;;5015461;28;96880;-77
2022/01/31 19:15:42;;;;;;;38.78;7.13;;;;;;;;;;5020436;28;96384;-78
2022/01/31 19:17:11;;;;;;;36.30;5.50;;;;;;;;;;5001534;28;97898;-79
2022/01/31 19:19:38;;;;;;;34.63;7.95;;;;;;;;;;5025660;28;95421;-79
2022/01/31 19:22:05;;;;;;;39.47;13.15;;;;;;;;;;5022391;28;97551;-78
2022/01/31 19:24:32;;;;;;;34.95;8.05;;;;;;;;;;5017330;28;95350;-79
2022/01/31 19:26:58;;;;;;;39.08;6.95;;;;;;;;;;5015818;28;97150;-77
2022/01/31 19:29:25;;;;;;;30.65;5.68;;;;;;;;;;5014274;28;97469;-78
2022/01/31 19:31:51;;;;;;;38.28;6.38;;;;;;;;;;5009964;28;95680;-78
2022/01/31 19:34:18;;;;;;;33.28;6.40;;;;;;;;;;5012387;28;97278;-77
2022/01/31 19:36:45;;;;;;;38.22;6.18;;;;;;;;;;5010540;28;97502;-77
2022/01/31 19:44:36;;;;;;;38.45;5.63;;;;;;;;;;5016242;27;95324;-75
2022/01/31 19:47:03;;;;;;;39.55;5.38;;;;;;;;;;5025487;28;97090;-76
2022/01/31 19:49:29;;;;;;;23.90;4.22;;;;;;;;;;5021115;27;97287;-77
2022/01/31 19:51:56;;;;;;;24.45;4.00;;;;;;;;;;5022401;27;95402;-76
2022/01/31 19:54:24;;;;;;;32.22;5.53;;;;;;;;;;5023654;28;96747;-77
2022/01/31 19:56:51;;;;;;;23.08;4.20;;;;;;;;;;5002470;28;97565;-77
2022/01/31 19:59:17;;;;;;;30.77;6.30;;;;;;;;;;5003381;28;95892;-77
2022/01/31 20:01:43;;;;;;;27.50;4.15;;;;;;;;;;5030836;27;96706;-78
2022/01/31 20:04:10;;;;;;;25.73;5.63;;;;;;;;;;5019011;28;97273;-77
2022/01/31 20:06:37;;;;;;;21.80;4.78;;;;;;;;;;5016422;28;96749;-77
2022/01/31 20:09:08;;;;;;;36.92;9.32;;;;;;;;;;5016093;28;97290;-77
2022/01/31 20:11:36;;;;;;;34.67;5.43;;;;;;;;;;5021112;28;97192;-76
2022/01/31 20:14:02;;;;;;;33.40;4.20;;;;;;;;;;5023285;28;96752;-76
2022/01/31 20:16:30;;;;;;;28.30;9.20;;;;;;;;;;5015896;28;97482;-77
2022/01/31 20:18:58;;;;;;;43.15;12.77;;;;;;;;;;5026981;28;95213;-76
2022/01/31 20:21:25;;;;;;;42.10;18.33;;;;;;;;;;5010916;28;96870;-77
2022/01/31 20:23:52;;;;;;;25.40;8.32;;;;;;;;;;5000423;28;97440;-76
2022/01/31 20:26:19;;;;;;;28.17;11.75;;;;;;;;;;5003851;28;95404;-76
2022/01/31 20:28:46;;;;;;;33.65;8.73;;;;;;;;;;5011220;28;97506;-77
2022/01/31 20:31:14;;;;;;;30.05;4.38;;;;;;;;;;5017845;28;95504;-78
2022/01/31 20:33:41;;;;;;;28.92;5.72;;;;;;;;;;5016317;28;96755;-78
2022/01/31 20:36:07;;;;;;;27.60;4.60;;;;;;;;;;5011511;28;97427;-77
2022/01/31 20:38:56;;;;;;;28.02;5.18;;;;;;;;;;5010721;28;95458;-77
2022/01/31 20:41:43;;;;;;;25.30;4.80;;;;;;;;;;5005287;28;98301;-77
2022/01/31 20:44:10;;;;;;;30.67;4.22;;;;;;;;;;5007463;28;97728;-77
2022/01/31 20:46:37;;;;;;;22.52;4.60;;;;;;;;;;5015474;28;96400;-77
2022/01/31 20:49:04;;;;;;;32.60;5.65;;;;;;;;;;5020127;28;97321;-77
2022/01/31 20:51:30;;;;;;;25.52;4.47;;;;;;;;;;5019105;28;97040;-78
2022/01/31 20:53:57;;;;;;;31.73;4.40;;;;;;;;;;5025419;28;97046;-75
2022/01/31 20:56:24;;;;;;;35.00;5.82;;;;;;;;;;5022323;28;97741;-76
2022/01/31 20:58:50;;;;;;;28.75;3.60;;;;;;;;;;5021152;28;95342;-77
2022/01/31 21:01:17;;;;;;;21.30;4.40;;;;;;;;;;5025603;27;96762;-77
2022/01/31 21:03:43;;;;;;;30.13;3.83;;;;;;;;;;5009967;28;97386;-77
2022/01/31 21:06:16;;;;;;;16.27;3.40;;;;;;;;;;5007230;28;95414;-77
2022/01/31 21:08:50;;;;;;;;;;;;;;;;;;5005145;28;97182;-77
2022/01/31 21:11:21;;;;;;;23.50;2.92;;;;;;;;;;5002352;28;120305;-76
2022/01/31 21:13:48;;;;;;;21.55;3.10;;;;;;;;;;5004960;28;96849;-76
2022/01/31 21:16:17;;;;;;;21.85;3.05;;;;;;;;;;5011865;28;97786;-76
2022/01/31 21:18:43;;;;;;;22.73;3.25;;;;;;;;;;5007805;28;96064;-77
2022/01/31 21:21:10;;;;;;;22.50;2.88;;;;;;;;;;5003949;28;97046;-77
2022/01/31 21:23:36;;;;;;;18.95;2.97;;;;;;;;;;4994266;28;97772;-77
2022/01/31 21:26:02;;;;;;;19.77;4.07;;;;;;;;;;5006276;28;95312;-77
2022/01/31 21:28:29;;;;;;;18.80;2.92;;;;;;;;;;5012916;28;96742;-77
2022/01/31 21:31:03;;;;;;;21.75;3.03;;;;;;;;;;5017136;28;96406;-77
2022/01/31 21:33:36;;;;;;;13.45;2.67;;;;;;;;;;5017559;28;97123;-77
2022/01/31 21:36:03;;;;;;;18.13;3.20;;;;;;;;;;5020681;28;97376;-78
2022/01/31 21:38:29;;;;;;;19.27;3.08;;;;;;;;;;5014026;28;95465;-77
2022/01/31 21:40:56;;;;;;;19.80;3.22;;;;;;;;;;5012385;28;96792;-77
2022/01/31 21:43:23;;;;;;;19.40;3.00;;;;;;;;;;5012871;28;97424;-78
2022/01/31 21:45:49;;;;;;;19.65;3.28;;;;;;;;;;5004149;28;95247;-78
2022/01/31 21:48:16;;;;;;;21.10;3.20;;;;;;;;;;5014237;28;97151;-78
2022/01/31 21:50:42;;;;;;;21.17;3.08;;;;;;;;;;5014438;28;96934;-76
2022/01/31 21:53:08;;;;;;;19.65;3.25;;;;;;;;;;5006752;28;96982;-76
2022/01/31 21:55:35;;;;;;;20.75;2.65;;;;;;;;;;5014967;28;97675;-76
2022/01/31 21:58:01;;;;;;;18.17;3.35;;;;;;;;;;5014213;28;95354;-76
2022/01/31 22:00:28;;;;;;;21.27;3.10;;;;;;;;;;5012462;28;96981;-76
2022/01/31 22:02:54;;;;;;;27.25;3.45;;;;;;;;;;5006621;28;97434;-76
2022/01/31 22:05:21;;;;;;;26.05;3.30;;;;;;;;;;5014635;28;95481;-77
2022/01/31 22:07:48;;;;;;;19.98;2.92;;;;;;;;;;5013226;28;97350;-77
2022/01/31 22:10:29;;;;;;;21.40;2.97;;;;;;;;;;5011160;28;97666;-76
2022/01/31 22:12:55;;;;;;;27.70;3.25;;;;;;;;;;5015749;28;95234;-77
2022/01/31 22:15:22;;;;;;;17.42;3.60;;;;;;;;;;5016890;28;96732;-77
2022/01/31 22:17:48;;;;;;;32.58;4.63;;;;;;;;;;5014045;28;95377;-76
2022/01/31 22:20:15;;;;;;;26.23;3.35;;;;;;;;;;5014741;28;97617;-76
2022/01/31 22:22:42;;;;;;;24.20;3.72;;;;;;;;;;5012216;28;97697;-76
2022/01/31 22:25:09;;;;;;;23.88;4.38;;;;;;;;;;5012643;28;96060;-76
2022/01/31 22:27:36;;;;;;;23.80;3.08;;;;;;;;;;5014015;28;96812;-77
2022/01/31 22:30:02;;;;;;;24.02;3.55;;;;;;;;;;5013116;28;97404;-76
2022/01/31 22:32:31;;;;;;;24.35;3.40;;;;;;;;;;5013868;28;95118;-76
2022/01/31 22:35:09;;;;;;;23.40;3.35;;;;;;;;;;5013427;28;96747;-76
2022/01/31 22:37:36;;;;;;;25.58;4.40;;;;;;;;;;5015188;28;97444;-77
2022/01/31 22:40:03;;;;;;;21.23;3.90;;;;;;;;;;5013800;28;96898;-77
2022/01/31 22:42:30;;;;;;;22.60;3.25;;;;;;;;;;5013507;28;97529;-76
2022/01/31 22:44:56;;;;;;;29.25;3.30;;;;;;;;;;5015000;28;95358;-77
2022/01/31 22:47:23;;;;;;;18.50;3.85;;;;;;;;;;5032777;28;96539;-77
2022/01/31 22:49:51;;;;;;;20.63;3.95;;;;;;;;;;5029826;28;97606;-76
2022/01/31 22:52:19;;;;;;;27.85;3.35;;;;;;;;;;5013018;28;95474;-77
2022/01/31 22:54:46;;;;;;;23.13;4.38;;;;;;;;;;5013998;28;96613;-75
2022/01/31 22:57:12;;;;;;;17.88;3.20;;;;;;;;;;5015620;28;97796;-76
2022/01/31 22:59:39;;;;;;;22.10;3.60;;;;;;;;;;5013755;28;96971;-76
2022/01/31 23:02:05;;;;;;;24.13;4.15;;;;;;;;;;5016717;28;97499;-77
2022/01/31 23:04:31;;;;;;;24.17;3.50;;;;;;;;;;5017723;28;96313;-75
2022/01/31 23:06:58;;;;;;;23.35;3.45;;;;;;;;;;5007866;28;96987;-78
2022/01/31 23:09:25;;;;;;;21.65;4.03;;;;;;;;;;5013056;28;97432;-76
2022/01/31 23:11:51;;;;;;;22.17;3.20;;;;;;;;;;4995773;28;95255;-76
2022/01/31 23:14:26;;;;;;;30.10;3.60;;;;;;;;;;4993397;28;97108;-76
2022/01/31 23:16:54;;;;;;;21.75;2.90;;;;;;;;;;4994821;28;97490;-77
2022/01/31 23:19:32;;;;;;;20.40;3.30;;;;;;;;;;5013225;28;95234;-77
2022/01/31 23:22:43;;;;;;;19.67;3.13;;;;;;;;;;5012872;28;97392;-76
2022/01/31 23:44:54;;;;;;;21.73;3.13;;;;;;;;;;4995698;28;97322;-77
2022/01/31 23:55:23;;;;;;;25.55;3.15;;;;;;;;;;4997921;28;95315;-76
